Time;durP1;ratioP1;P1;durP2;ratioP2;P2;SDS_P1;SDS_P2;PMS_P1;PMS_P2;Temp;Humidity;BMP_temperature;BMP_pressure;BME280_temperature;BME280_humidity;BME280_pressure;Samples;Min_cycle;Max_cycle;Signal;HPM_P1;HPM_P2
2023/07/27 00:02:25;;;;;;;92.45;86.02;;;;;;;14.15;96.61;99702.94;1769887;81;25230;-76
2023/07/27 00:04:53;;;;;;;8.70;5.53;;;;;;;14.14;96.69;99702.13;1769894;81;25456;-77
2023/07/27 00:07:20;;;;;;;9.78;5.45;;;;;;;14.15;97.01;99698.86;1745681;81;25730;-77
2023/07/27 00:09:48;;;;;;;8.43;5.53;;;;;;;14.14;96.77;99699.99;1714226;82;25599;-77
2023/07/27 00:12:15;;;;;;;6.95;5.72;;;;;;;14.12;96.79;99700.91;1787092;80;27762;-77
2023/07/27 00:14:42;;;;;;;6.47;5.20;;;;;;;14.12;96.85;99707.71;1787992;80;25461;-77
2023/07/27 00:17:09;;;;;;;10.70;9.25;;;;;;;14.10;97.24;99699.12;1788035;80;25456;-77
2023/07/27 00:19:36;;;;;;;8.40;6.08;;;;;;;14.10;97.61;99698.53;1788029;79;26139;-76
2023/07/27 00:22:04;;;;;;;20.23;8.53;;;;;;;14.10;97.49;99706.70;1788061;80;25303;-76
2023/07/27 00:24:32;;;;;;;7.45;5.53;;;;;;;14.09;97.17;99701.02;1788057;79;27194;-76
2023/07/27 00:26:59;;;;;;;6.25;5.45;;;;;;;14.07;97.23;99706.02;1787897;80;25477;-77
2023/07/27 00:29:26;;;;;;;6.78;4.78;;;;;;;14.06;97.45;99704.43;1788023;80;25361;-77
2023/07/27 00:31:54;;;;;;;9.80;5.70;;;;;;;14.06;97.26;99705.01;1788024;80;26186;-77
2023/07/27 00:34:21;;;;;;;9.35;5.50;;;;;;;14.04;97.53;99700.49;1788123;80;25505;-77
2023/07/27 00:36:50;;;;;;;10.20;5.47;;;;;;;14.03;97.20;99702.42;1788118;80;27895;-77
2023/07/27 00:39:17;;;;;;;7.85;5.03;;;;;;;14.00;96.97;99707.19;1787949;79;25370;-76
2023/07/27 00:41:45;;;;;;;7.50;5.22;;;;;;;13.99;97.26;99708.31;1788039;80;25450;-77
2023/07/27 00:44:12;;;;;;;7.60;5.30;;;;;;;13.99;97.71;99708.31;1788049;80;26204;-77
2023/07/27 00:46:39;;;;;;;7.45;5.30;;;;;;;14.00;98.10;99715.34;1788124;80;25052;-77
2023/07/27 00:49:08;;;;;;;6.85;5.17;;;;;;;14.00;98.17;99719.42;1788037;80;27205;-77
2023/07/27 00:51:40;;;;;;;6.33;5.22;;;;;;;13.98;97.84;99719.77;1787952;80;25353;-76
2023/07/27 00:54:11;;;;;;;6.78;5.10;;;;;;;13.98;97.78;99721.70;1788057;80;25516;-77
2023/07/27 00:56:40;;;;;;;6.15;4.58;;;;;;;13.97;97.86;99727.69;1788019;80;25602;-77
2023/07/27 00:59:09;;;;;;;6.33;4.53;;;;;;;13.97;98.16;99729.05;1788295;80;25464;-77
2023/07/27 01:01:37;;;;;;;7.25;4.85;;;;;;;13.96;98.08;99737.00;1788134;80;27239;-77
2023/07/27 01:04:04;;;;;;;7.20;4.75;;;;;;;13.93;97.98;99730.11;1787975;80;25498;-77
2023/07/27 01:06:31;;;;;;;4.85;4.08;;;;;;;13.94;98.12;99733.81;1788126;80;25536;-77
2023/07/27 01:09:01;;;;;;;7.30;5.47;;;;;;;13.94;98.07;99738.47;1788104;79;26216;-77
2023/07/27 01:12:03;;;;;;;6.12;3.85;;;;;;;13.93;98.04;99736.91;1789573;80;25384;-77
2023/07/27 01:14:56;;;;;;;4.78;3.52;;;;;;;13.92;97.89;99738.81;1791578;80;27242;-77
2023/07/27 01:17:35;;;;;;;5.08;3.83;;;;;;;13.89;97.72;99735.42;1796538;79;25317;-78
2023/07/27 01:20:31;;;;;;;6.50;3.90;;;;;;;13.88;97.76;99735.78;1795353;79;25503;-77
2023/07/27 01:23:26;;;;;;;8.03;3.90;;;;;;;13.86;97.74;99739.39;1796165;79;25629;-77
2023/07/27 01:26:17;;;;;;;4.47;3.70;;;;;;;13.82;97.74;99741.47;1796548;79;25441;-76
2023/07/27 01:29:20;;;;;;;3.95;3.10;;;;;;;13.81;97.97;99744.52;1772035;79;27607;-78
2023/07/27 01:31:51;;;;;;;4.03;3.47;;;;;;;13.79;97.85;99748.13;1796716;79;25695;-79
2023/07/27 01:34:32;;;;;;;7.03;3.77;;;;;;;13.74;97.53;99744.30;1796850;79;25464;-78
2023/07/27 01:37:08;;;;;;;4.95;3.47;;;;;;;13.71;97.11;99743.06;1796350;79;25655;-76
2023/07/27 01:39:41;;;;;;;5.17;3.50;;;;;;;13.67;97.07;99740.02;1771661;79;25450;-76
2023/07/27 01:42:12;;;;;;;8.63;3.60;;;;;;;13.64;97.22;99738.21;1794612;79;27164;-74
2023/07/27 01:44:42;;;;;;;10.30;3.40;;;;;;;13.63;97.40;99735.83;1796336;79;25435;-76
2023/07/27 01:47:10;;;;;;;;;;;;;;;13.61;97.42;99728.02;1798945;79;25308;-77
2023/07/27 01:49:40;;;;;;;4.30;3.33;;;;;;;13.59;97.52;99724.86;1794817;80;25608;-75
2023/07/27 01:52:10;;;;;;;5.33;3.80;;;;;;;13.57;97.40;99718.17;1796335;79;25324;-75
2023/07/27 01:54:39;;;;;;;5.65;3.60;;;;;;;13.55;97.32;99725.33;1796353;79;27306;-75
2023/07/27 01:57:09;;;;;;;4.55;3.33;;;;;;;13.51;97.17;99723.06;1796462;79;25541;-78
2023/07/27 01:59:39;;;;;;;6.53;3.58;;;;;;;13.49;97.08;99723.19;1796429;79;25111;-78
2023/07/27 02:02:09;;;;;;;7.45;3.40;;;;;;;13.46;97.07;99726.02;1796306;79;25667;-76
2023/07/27 02:04:37;;;;;;;3.50;3.20;;;;;;;13.43;97.45;99722.06;1796550;79;25307;-75
2023/07/27 02:07:05;;;;;;;3.62;3.30;;;;;;;13.42;97.45;99726.48;1796332;79;27838;-76
2023/07/27 02:09:32;;;;;;;4.28;3.20;;;;;;;13.40;97.37;99728.18;1796203;79;25320;-76
2023/07/27 02:12:05;;;;;;;5.90;3.47;;;;;;;13.39;97.49;99733.38;1792806;79;25479;-76
2023/07/27 02:14:56;;;;;;;5.37;3.22;;;;;;;13.38;97.67;99737.78;1790021;80;25687;-78
2023/07/27 02:17:29;;;;;;;6.65;3.40;;;;;;;13.36;97.78;99734.05;1788331;80;25488;-76
2023/07/27 02:20:00;;;;;;;5.58;3.70;;;;;;;13.36;97.62;99735.98;1790246;80;27038;-77
2023/07/27 02:22:30;;;;;;;5.20;3.72;;;;;;;13.33;97.68;99742.09;1790233;80;25515;-77
2023/07/27 02:24:57;;;;;;;5.95;3.70;;;;;;;13.32;97.92;99744.60;1790316;79;25092;-76
2023/07/27 02:27:24;;;;;;;6.33;3.30;;;;;;;13.32;98.11;99746.74;1790485;80;25749;-79
2023/07/27 02:29:52;;;;;;;11.60;3.85;;;;;;;13.31;98.18;99734.83;1764120;80;25596;-79
2023/07/27 02:32:19;;;;;;;7.37;3.67;;;;;;;13.29;97.80;99747.39;1790507;80;27232;-77
2023/07/27 02:34:49;;;;;;;5.70;3.70;;;;;;;13.26;97.70;99743.98;1790659;79;25458;-78
2023/07/27 02:37:16;;;;;;;;;;;;;;;13.24;97.65;99758.48;1792987;80;25349;-77
2023/07/27 02:39:43;;;;;;;8.93;3.47;;;;;;;13.22;97.78;99758.03;1790265;80;25725;-76
2023/07/27 02:42:10;;;;;;;6.20;3.62;;;;;;;13.20;97.71;99751.58;1790264;79;25527;-77
2023/07/27 02:44:39;;;;;;;5.10;3.72;;;;;;;13.18;97.74;99742.20;1763496;80;27782;-76
2023/07/27 02:47:06;;;;;;;6.20;3.40;;;;;;;13.16;97.90;99735.75;1790755;80;25380;-79
2023/07/27 02:49:33;;;;;;;7.40;3.67;;;;;;;13.15;97.89;99741.52;1790497;80;25337;-77
2023/07/27 02:52:00;;;;;;;6.25;3.72;;;;;;;13.14;98.01;99735.84;1790540;80;25705;-77
2023/07/27 02:54:28;;;;;;;7.20;3.77;;;;;;;13.13;98.18;99741.04;1791316;80;25401;-76
2023/07/27 02:56:55;;;;;;;4.80;3.75;;;;;;;13.13;98.16;99735.61;1792869;80;27356;-76
2023/07/27 02:59:22;;;;;;;5.05;3.87;;;;;;;13.12;98.24;99740.26;1792128;79;25282;-77
2023/07/27 03:01:49;;;;;;;6.95;3.87;;;;;;;13.11;98.19;99744.67;1790432;78;25521;-76
2023/07/27 03:04:16;;;;;;;5.05;4.35;;;;;;;13.08;98.08;99749.66;1790265;80;25484;-76
2023/07/27 03:06:43;;;;;;;4.45;3.80;;;;;;;13.09;98.18;99750.44;1790358;80;25475;-76
2023/07/27 03:09:11;;;;;;;5.70;4.25;;;;;;;13.06;98.10;99751.92;1790255;80;27405;-76
2023/07/27 03:11:40;;;;;;;5.42;4.40;;;;;;;13.04;98.23;99750.11;1790118;80;25436;-77
2023/07/27 03:14:07;;;;;;;;;;;;;;;13.04;98.38;99748.76;1792983;79;25525;-77
2023/07/27 03:16:35;;;;;;;6.58;4.30;;;;;;;13.05;98.90;99750.32;1790260;78;25757;-76
2023/07/27 03:19:02;;;;;;;7.30;4.53;;;;;;;13.04;98.96;99754.19;1790396;80;25063;-76
2023/07/27 03:21:29;;;;;;;7.53;4.42;;;;;;;13.05;99.08;99754.39;1790279;78;27217;-76
2023/07/27 03:23:56;;;;;;;5.15;4.22;;;;;;;13.07;99.52;99762.98;1790181;80;25488;-77
2023/07/27 03:26:24;;;;;;;6.80;4.80;;;;;;;13.10;99.79;99756.68;1790290;80;25116;-75
2023/07/27 03:28:51;;;;;;;5.20;4.22;;;;;;;13.11;99.82;99758.24;1790167;80;26173;-75
2023/07/27 03:31:24;;;;;;;7.67;4.72;;;;;;;13.12;99.97;99754.41;1790238;80;25495;-75
2023/07/27 03:33:52;;;;;;;4.97;4.50;;;;;;;13.14;100.00;99760.28;1790307;79;27191;-75
2023/07/27 03:36:21;;;;;;;8.68;4.65;;;;;;;13.16;100.00;99754.76;1763560;80;25481;-74
2023/07/27 03:38:48;;;;;;;6.20;4.42;;;;;;;13.18;100.00;99755.78;1790368;80;25477;-75
2023/07/27 03:41:16;;;;;;;8.33;5.62;;;;;;;13.20;100.00;99750.80;1790203;80;25741;-75
2023/07/27 03:43:43;;;;;;;6.42;4.58;;;;;;;13.21;100.00;99749.10;1790256;80;25351;-75
2023/07/27 03:46:10;;;;;;;5.67;5.08;;;;;;;13.23;100.00;99752.27;1790228;80;27238;-75
2023/07/27 03:48:38;;;;;;;7.80;5.25;;;;;;;13.24;100.00;99748.40;1790119;80;25472;-74
2023/07/27 03:51:05;;;;;;;7.30;5.17;;;;;;;13.26;100.00;99754.30;1790187;80;25119;-74
2023/07/27 03:53:32;;;;;;;7.60;5.28;;;;;;;13.29;100.00;99758.83;1790182;80;26173;-75
2023/07/27 03:56:01;;;;;;;13.50;12.25;;;;;;;13.32;100.00;99760.89;1790198;80;25328;-75
2023/07/27 03:58:29;;;;;;;23.60;21.65;;;;;;;13.33;100.00;99759.75;1790397;80;33405;-74
2023/07/27 04:00:58;;;;;;;8.95;8.00;;;;;;;13.34;100.00;99757.27;1790263;80;25325;-75
2023/07/27 04:03:25;;;;;;;6.42;5.47;;;;;;;13.37;100.00;99766.10;1790308;80;34724;-76
2023/07/27 04:05:52;;;;;;;8.18;5.70;;;;;;;13.39;100.00;99768.69;1762984;80;25605;-76
2023/07/27 04:08:19;;;;;;;7.70;5.03;;;;;;;13.42;100.00;99767.23;1790368;79;25476;-76
2023/07/27 04:10:47;;;;;;;6.75;5.08;;;;;;;13.43;100.00;99766.89;1790316;80;27268;-76
2023/07/27 04:13:14;;;;;;;6.70;5.33;;;;;;;13.47;100.00;99763.47;1795404;79;25412;-72
2023/07/27 04:15:42;;;;;;;8.55;5.40;;;;;;;13.52;100.00;99765.95;1796337;79;25590;-75
2023/07/27 04:18:10;;;;;;;10.58;5.40;;;;;;;13.53;100.00;99768.91;1796651;79;26128;-75
2023/07/27 04:20:37;;;;;;;8.43;5.50;;;;;;;13.52;100.00;99770.03;1796441;79;25476;-76
2023/07/27 04:23:05;;;;;;;10.00;5.83;;;;;;;13.52;100.00;99775.46;1796445;79;27299;-75
2023/07/27 04:25:32;;;;;;;8.10;5.60;;;;;;;13.51;100.00;99775.26;1796354;79;25664;-76
2023/07/27 04:28:00;;;;;;;8.85;5.50;;;;;;;13.50;100.00;99769.58;1796416;79;25466;-75
2023/07/27 04:30:27;;;;;;;10.78;5.85;;;;;;;13.53;100.00;99768.33;1796396;79;26197;-75
2023/07/27 04:32:54;;;;;;;9.18;5.03;;;;;;;13.55;100.00;99774.23;1796511;79;25302;-77
2023/07/27 04:35:21;;;;;;;10.40;5.72;;;;;;;13.54;100.00;99775.36;1796505;79;27180;-76
2023/07/27 04:37:48;;;;;;;10.18;5.90;;;;;;;13.57;100.00;99771.16;1796558;79;25429;-76
2023/07/27 04:40:17;;;;;;;6.58;5.35;;;;;;;13.58;100.00;99768.10;1796455;79;25508;-75
2023/07/27 04:42:47;;;;;;;7.42;5.75;;;;;;;13.59;100.00;99766.20;1796606;79;25666;-77
2023/07/27 04:45:14;;;;;;;9.43;6.87;;;;;;;13.59;100.00;99762.91;1796699;79;25471;-77
2023/07/27 04:47:41;;;;;;;7.92;7.12;;;;;;;13.58;100.00;99765.38;1796379;79;27192;-75
2023/07/27 04:50:11;;;;;;;9.35;6.80;;;;;;;13.58;100.00;99766.74;1796307;79;25632;-76
2023/07/27 04:52:39;;;;;;;11.95;10.58;;;;;;;13.61;100.00;99770.72;1796375;79;25376;-77
2023/07/27 04:55:07;;;;;;;15.53;13.88;;;;;;;13.61;100.00;99769.36;1796389;79;25630;-73
2023/07/27 04:57:34;;;;;;;41.33;38.55;;;;;;;13.61;100.00;99774.80;1796316;79;25448;-73
2023/07/27 05:00:01;;;;;;;37.85;35.35;;;;;;;13.61;100.00;99769.36;1796304;79;27154;-72
2023/07/27 05:02:28;;;;;;;36.68;34.03;;;;;;;13.60;100.00;99772.66;1796313;79;25535;-73
2023/07/27 05:04:56;;;;;;;88.40;82.80;;;;;;;13.62;100.00;99764.94;1796297;79;25540;-74
2023/07/27 05:07:23;;;;;;;90.25;84.28;;;;;;;13.64;100.00;99767.32;1796389;79;25677;-79
2023/07/27 05:09:50;;;;;;;89.03;83.42;;;;;;;13.66;100.00;99768.34;1796293;79;25315;-71
2023/07/27 05:12:18;;;;;;;88.15;82.62;;;;;;;13.67;100.00;99759.81;1794429;79;27922;-70
2023/07/27 05:14:45;;;;;;;90.35;84.60;;;;;;;13.72;100.00;99760.94;1788649;80;25597;-70
2023/07/27 05:17:12;;;;;;;57.95;54.10;;;;;;;13.77;100.00;99763.45;1789384;80;25587;-74
2023/07/27 05:19:39;;;;;;;14.03;12.65;;;;;;;13.78;100.00;99756.86;1789361;80;25664;-70
2023/07/27 05:22:06;;;;;;;11.90;9.50;;;;;;;13.85;100.00;99753.56;1789469;79;25633;-70
2023/07/27 05:24:33;;;;;;;13.05;9.25;;;;;;;13.94;100.00;99747.98;1789390;80;27236;-71
2023/07/27 05:27:00;;;;;;;12.28;7.55;;;;;;;13.96;100.00;99747.06;1762598;80;25619;-72
2023/07/27 05:29:28;;;;;;;9.63;6.17;;;;;;;13.97;100.00;99747.30;1790067;80;25467;-73
2023/07/27 05:31:55;;;;;;;9.50;6.90;;;;;;;14.03;100.00;99755.45;1790013;79;25671;-72
2023/07/27 05:34:22;;;;;;;8.23;7.12;;;;;;;14.11;100.00;99757.79;1790096;80;25319;-71
2023/07/27 05:36:49;;;;;;;86.57;81.28;;;;;;;14.17;100.00;99752.34;1790049;80;27194;-71
2023/07/27 05:39:17;;;;;;;86.08;80.65;;;;;;;14.24;100.00;99752.53;1789958;80;25486;-71
2023/07/27 05:41:44;;;;;;;84.52;79.17;;;;;;;14.31;100.00;99751.94;1790059;80;25367;-70
2023/07/27 05:44:11;;;;;;;85.32;80.00;;;;;;;14.36;100.00;99753.83;1763450;80;25866;-70
2023/07/27 05:46:38;;;;;;;84.90;79.60;;;;;;;14.46;100.00;99756.63;1790128;80;25522;-71
2023/07/27 05:49:05;;;;;;;86.45;81.12;;;;;;;14.54;100.00;99763.03;1790061;79;27264;-70
2023/07/27 05:51:33;;;;;;;84.37;79.17;;;;;;;14.71;100.00;99765.48;1789934;80;25305;-71
2023/07/27 05:54:00;;;;;;;83.85;78.62;;;;;;;14.77;100.00;99767.94;1762816;80;25389;-72
2023/07/27 05:56:27;;;;;;;85.90;80.30;;;;;;;14.86;100.00;99763.11;1789995;79;26450;-72
2023/07/27 05:58:54;;;;;;;85.12;79.92;;;;;;;14.91;100.00;99765.56;1790051;80;25465;-72
2023/07/27 06:01:21;;;;;;;84.20;78.90;;;;;;;15.03;100.00;99766.84;1763298;80;27826;-72
2023/07/27 06:03:48;;;;;;;84.42;79.30;;;;;;;15.12;100.00;99759.88;1762724;80;25704;-71
2023/07/27 06:06:15;;;;;;;87.78;82.35;;;;;;;15.21;100.00;99764.55;1790044;80;25606;-71
2023/07/27 06:08:43;;;;;;;86.30;80.72;;;;;;;15.34;100.00;99759.00;1790028;80;25668;-72
2023/07/27 06:11:10;;;;;;;84.52;79.42;;;;;;;15.41;100.00;99769.51;1789985;80;25495;-72
2023/07/27 06:13:37;;;;;;;88.15;82.70;;;;;;;15.42;99.92;99769.70;1789894;79;26903;-73
2023/07/27 06:16:05;;;;;;;87.65;81.42;;;;;;;15.42;98.96;99767.56;1789934;80;25324;-72
2023/07/27 06:18:33;;;;;;;86.42;80.95;;;;;;;15.47;99.80;99772.74;1790051;79;25378;-72
2023/07/27 06:21:02;;;;;;;89.58;84.03;;;;;;;15.51;99.72;99768.18;1764421;80;26134;-72
2023/07/27 06:23:29;;;;;;;87.90;82.47;;;;;;;15.48;97.73;99773.75;1790318;79;25340;-73
2023/07/27 06:25:56;;;;;;;87.37;81.65;;;;;;;15.46;98.80;99778.77;1790255;80;28039;-73
2023/07/27 06:28:24;;;;;;;89.50;83.90;;;;;;;15.45;99.02;99771.73;1790178;80;25337;-73
2023/07/27 06:30:51;;;;;;;86.50;81.05;;;;;;;15.53;100.00;99772.70;1762820;80;25496;-71
2023/07/27 06:33:18;;;;;;;89.52;83.95;;;;;;;15.62;100.00;99775.22;1790214;79;25596;-73
2023/07/27 06:35:46;;;;;;;91.47;85.80;;;;;;;15.61;99.29;99781.26;1762834;80;25375;-73
2023/07/27 06:38:13;;;;;;;90.12;84.45;;;;;;;15.73;100.00;99777.59;1790278;79;27193;-72
2023/07/27 06:40:40;;;;;;;91.78;85.97;;;;;;;15.78;100.00;99780.10;1790177;80;25549;-72
2023/07/27 06:43:07;;;;;;;89.62;83.92;;;;;;;15.86;100.00;99785.91;1790240;79;25432;-73
2023/07/27 06:45:35;;;;;;;90.05;84.05;;;;;;;15.83;98.80;99782.55;1790179;80;25386;-74
2023/07/27 06:48:04;;;;;;;47.48;43.75;;;;;;;15.83;98.14;99779.83;1790267;78;25464;-73
2023/07/27 06:50:31;;;;;;;45.70;42.53;;;;;;;15.92;99.04;99778.25;1763072;80;27740;-73
2023/07/27 06:52:58;;;;;;;45.17;41.92;;;;;;;16.09;100.00;99777.59;1790063;80;25489;-73
2023/07/27 06:55:26;;;;;;;84.03;78.47;;;;;;;16.18;100.00;99780.92;1763246;80;25348;-74
2023/07/27 06:57:55;;;;;;;90.28;84.77;;;;;;;16.27;99.32;99777.38;1790155;80;25589;-74
2023/07/27 07:00:22;;;;;;;92.02;86.15;;;;;;;16.55;100.00;99782.61;1790394;80;25356;-73
2023/07/27 07:02:51;;;;;;;29.25;26.90;;;;;;;16.55;100.00;99782.61;1790207;79;27370;-73
2023/07/27 07:05:19;;;;;;;18.15;16.55;;;;;;;16.76;100.00;99788.25;1790364;80;25491;-73
2023/07/27 07:07:46;;;;;;;19.20;16.85;;;;;;;16.92;100.00;99784.84;1790295;80;25538;-73
2023/07/27 07:10:13;;;;;;;16.48;14.95;;;;;;;17.02;98.03;99788.91;1790323;80;25585;-73
2023/07/27 07:12:41;;;;;;;14.38;13.10;;;;;;;17.06;94.55;99788.41;1791060;78;25443;-74
2023/07/27 07:15:10;;;;;;;14.80;13.55;;;;;;;17.08;92.85;99786.10;1796607;79;27180;-72
2023/07/27 07:17:40;;;;;;;21.70;20.00;;;;;;;17.15;95.65;99793.63;1796286;79;25363;-73
2023/07/27 07:20:10;;;;;;;41.30;38.78;;;;;;;17.28;95.34;99795.02;1796474;79;25528;-72
2023/07/27 07:22:38;;;;;;;69.22;65.03;;;;;;;17.41;95.29;99794.81;1796352;79;26541;-71
2023/07/27 07:25:05;;;;;;;79.72;74.95;;;;;;;17.39;92.00;99793.03;1796324;79;25474;-71
2023/07/27 07:27:33;;;;;;;84.67;79.55;;;;;;;17.49;93.43;99796.50;1796301;79;27768;-70
2023/07/27 07:30:03;;;;;;;83.72;78.62;;;;;;;17.71;94.42;99789.41;1796249;79;25484;-72
2023/07/27 07:32:31;;;;;;;71.50;67.27;;;;;;;17.78;92.01;99785.98;1771977;79;26738;-70
2023/07/27 07:34:58;;;;;;;13.10;11.80;;;;;;;17.77;91.26;99785.76;1796421;79;25776;-70
2023/07/27 07:37:25;;;;;;;14.05;12.63;;;;;;;17.86;91.02;99783.52;1796324;79;25547;-70
2023/07/27 07:39:53;;;;;;;13.15;10.93;;;;;;;17.97;88.20;99785.09;1771476;79;27840;-71
2023/07/27 07:42:20;;;;;;;21.40;19.65;;;;;;;18.11;89.45;99779.78;1796188;79;25540;-69
2023/07/27 07:44:49;;;;;;;63.05;59.18;;;;;;;18.39;91.14;99787.55;1796304;79;25369;-74
2023/07/27 07:47:16;;;;;;;85.10;79.72;;;;;;;18.66;90.10;99787.42;1796568;79;25537;-73
2023/07/27 07:49:45;;;;;;;82.10;76.95;;;;;;;18.90;89.53;99792.98;1796606;79;25495;-72
2023/07/27 07:52:13;;;;;;;83.47;78.47;;;;;;;19.25;89.78;99784.07;1796410;79;27712;-72
2023/07/27 07:54:41;;;;;;;82.25;77.45;;;;;;;19.57;86.74;99782.92;1796596;79;25297;-73
2023/07/27 07:57:09;;;;;;;82.17;77.25;;;;;;;19.58;82.83;99780.36;1796423;79;25576;-72
2023/07/27 07:59:38;;;;;;;81.65;76.85;;;;;;;19.71;82.59;99780.84;1796494;79;25719;-72
2023/07/27 08:02:05;;;;;;;81.97;77.00;;;;;;;19.79;80.65;99783.87;1796357;79;25487;-72
2023/07/27 08:04:32;;;;;;;82.53;77.35;;;;;;;19.96;79.79;99784.53;1796254;79;27265;-71
2023/07/27 08:07:00;;;;;;;83.30;78.30;;;;;;;20.24;81.28;99785.04;1796166;79;25540;-72
2023/07/27 08:09:27;;;;;;;80.83;76.22;;;;;;;20.56;79.15;99787.10;1796271;79;25319;-73
2023/07/27 08:11:54;;;;;;;81.02;76.25;;;;;;;20.84;78.51;99785.81;1796175;79;25670;-72
2023/07/27 08:14:24;;;;;;;81.65;76.87;;;;;;;21.13;76.12;99789.95;1796217;79;25461;-73
2023/07/27 08:16:51;;;;;;;81.22;76.62;;;;;;;21.36;77.46;99785.41;1795554;79;27201;-74
2023/07/27 08:19:18;;;;;;;82.80;77.80;;;;;;;21.80;77.09;99788.91;1796211;79;25482;-73
2023/07/27 08:21:45;;;;;;;78.85;74.30;;;;;;;21.95;73.92;99791.03;1796277;79;25460;-72
2023/07/27 08:24:12;;;;;;;83.55;78.50;;;;;;;22.03;71.02;99783.51;1796268;79;25613;-73
2023/07/27 08:26:39;;;;;;;79.90;75.20;;;;;;;22.14;72.00;99779.53;1796302;79;25348;-73
2023/07/27 08:29:06;;;;;;;79.35;74.75;;;;;;;22.41;72.68;99770.78;1796250;79;27826;-72
2023/07/27 08:31:33;;;;;;;79.53;74.87;;;;;;;22.77;68.94;99778.82;1796222;79;25445;-73
2023/07/27 08:34:03;;;;;;;80.10;75.57;;;;;;;22.76;68.25;99771.73;1771552;79;25605;-73
2023/07/27 08:36:30;;;;;;;79.80;75.08;;;;;;;22.89;66.77;99770.66;1796454;79;25671;-73
2023/07/27 08:38:58;;;;;;;79.27;74.87;;;;;;;22.84;66.49;99779.36;1796337;79;25488;-73
2023/07/27 08:41:28;;;;;;;78.95;74.30;;;;;;;22.77;65.98;99769.77;1796434;79;27623;-73
2023/07/27 08:44:01;;;;;;;76.77;72.10;;;;;;;23.03;67.75;99769.77;1796191;79;25752;-73
2023/07/27 08:46:30;;;;;;;76.72;72.35;;;;;;;23.42;67.23;99764.52;1796330;79;25354;-72
2023/07/27 08:48:57;;;;;;;77.32;72.58;;;;;;;23.67;64.29;99767.80;1796345;79;25776;-71
2023/07/27 08:51:25;;;;;;;72.67;68.60;;;;;;;23.62;63.57;99766.09;1796193;79;25480;-71
2023/07/27 08:53:52;;;;;;;72.75;68.37;;;;;;;23.56;61.47;99764.97;1796228;79;27817;-71
2023/07/27 08:56:19;;;;;;;74.65;70.35;;;;;;;23.57;62.18;99765.16;1796111;79;25488;-72
2023/07/27 08:58:46;;;;;;;74.65;70.57;;;;;;;23.83;62.91;99764.48;1796306;79;25515;-74
2023/07/27 09:01:15;;;;;;;74.85;70.80;;;;;;;24.08;61.26;99762.64;1771556;79;25774;-71
2023/07/27 09:03:43;;;;;;;70.90;67.03;;;;;;;24.42;61.01;99759.81;1796420;79;25129;-74
2023/07/27 09:06:12;;;;;;;76.10;71.37;;;;;;;24.77;60.45;99763.26;1796260;79;27141;-72
2023/07/27 09:08:39;;;;;;;72.72;68.52;;;;;;;25.12;59.81;99756.98;1796121;79;25466;-73
2023/07/27 09:11:10;;;;;;;69.37;65.60;;;;;;;25.43;58.01;99762.39;1796215;79;25562;-62
2023/07/27 09:13:39;;;;;;;73.28;69.10;;;;;;;25.56;56.21;99763.34;1790230;79;25549;-64
2023/07/27 09:16:09;;;;;;;92.92;85.85;;;;;;;25.56;55.52;99760.57;1769951;81;25318;-71
2023/07/27 09:18:39;;;;;;;51.98;48.65;;;;;;;25.59;53.27;99761.11;1769672;81;26967;-71
2023/07/27 09:21:10;;;;;;;80.15;74.58;;;;;;;25.74;52.93;99751.91;1769560;81;25715;-69
2023/07/27 09:23:39;;;;;;;72.92;68.78;;;;;;;25.82;51.52;99767.78;1737499;82;25494;-67
2023/07/27 09:26:06;;;;;;;54.63;51.35;;;;;;;25.88;51.61;99763.30;1744781;81;25694;-64
2023/07/27 09:28:33;;;;;;;77.70;72.37;;;;;;;;;;1769645;81;25296;-66
2023/07/27 09:31:02;;;;;;;73.02;68.92;;;;;;;;;;1769644;81;27862;-62
2023/07/27 09:33:32;;;;;;;70.90;66.67;;;;;;;;;;1737525;82;25524;-64
2023/07/27 09:36:02;;;;;;;74.25;69.97;;;;;;;;;;1769708;81;25181;-61
2023/07/27 09:38:29;;;;;;;72.87;68.87;;;;;;;;;;1769687;81;25547;-65
2023/07/27 09:40:56;;;;;;;72.67;68.65;;;;;;;;;;1769824;81;25517;-64
2023/07/27 09:43:25;;;;;;;71.25;67.25;;;;;;;;;;1737564;82;27169;-65
2023/07/27 09:45:59;;;;;;;73.22;68.95;;;;;;;;;;1769630;81;25292;-64
2023/07/27 09:48:28;;;;;;;68.33;64.55;;;;;;;;;;1769691;81;25322;-64
2023/07/27 09:51:03;;;;;;;69.10;65.37;;;;;;;;;;1769620;81;25663;-65
2023/07/27 09:53:35;;;;;;;74.80;70.25;;;;;;;;;;1737508;82;25534;-65
2023/07/27 09:56:07;;;;;;;71.30;67.30;;;;;;;;;;1769819;81;27207;-65
2023/07/27 09:58:36;;;;;;;70.78;66.87;;;;;;;;;;1769867;81;25310;-65
2023/07/27 10:01:03;;;;;;;50.92;48.23;;;;;;;;;;1769807;81;25292;-63
2023/07/27 10:03:30;;;;;;;48.85;46.25;;;;;;;;;;1737639;82;25713;-65
2023/07/27 10:05:59;;;;;;;17.52;16.62;;;;;;;;;;1769819;81;25483;-64
2023/07/27 10:08:28;;;;;;;72.78;68.75;;;;;;;;;;1769769;81;27251;-64
2023/07/27 10:10:58;;;;;;;69.60;65.60;;;;;;;;;;1769806;81;25432;-64
2023/07/27 10:13:29;;;;;;;71.07;67.05;;;;;;;;;;1769728;80;25272;-64
2023/07/27 10:16:00;;;;;;;66.35;62.85;;;;;;;;;;1758443;81;25824;-65
2023/07/27 10:18:31;;;;;;;49.70;46.90;;;;;;;;;;1758411;81;25446;-64
2023/07/27 10:21:23;;;;;;;115.17;107.32;;;;;;;;;;1758420;81;28113;-65
2023/07/27 10:24:02;;;;;;;68.55;64.77;;;;;;;;;;1758365;81;25457;-65
2023/07/27 10:26:51;;;;;;;84.95;79.97;;;;;;;;;;1758469;81;25354;-65
2023/07/27 10:29:27;;;;;;;12.40;11.90;;;;;;;;;;1758669;81;25788;-65
2023/07/27 10:32:10;;;;;;;21.95;20.68;;;;;;;;;;1758687;81;25380;-67
2023/07/27 10:34:39;;;;;;;72.97;68.97;;;;;;;;;;1758547;81;27309;-66
2023/07/27 10:37:09;;;;;;;70.52;66.47;;;;;;;;;;1757691;81;25521;-66
2023/07/27 10:39:47;;;;;;;71.65;67.90;;;;;;;;;;1757284;81;25587;-65
2023/07/27 10:42:17;;;;;;;72.75;68.87;;;;;;;;;;1758533;81;25719;-66
2023/07/27 10:44:51;;;;;;;73.37;69.32;;;;;;;;;;1757042;81;25270;-67
2023/07/27 10:47:33;;;;;;;121.45;113.17;;;;;;;;;;1746779;81;29014;-66
2023/07/27 15:59:29;;;;;;;4.37;1.62;;;;;;;24.35;34.80;99597.64;1821138;77;25673;-63
2023/07/27 16:01:56;;;;;;;1.60;1.40;;;;;;;24.14;34.89;99597.37;1782497;80;25366;-62
2023/07/27 16:04:22;;;;;;;4.58;1.70;;;;;;;23.97;35.09;99593.70;1782398;80;27599;-62
2023/07/27 16:06:48;;;;;;;2.27;1.40;;;;;;;23.86;35.58;99589.70;1782384;80;25554;-62
2023/07/27 16:09:16;;;;;;;3.33;1.65;;;;;;;23.77;35.74;99583.90;1782465;80;25374;-61
2023/07/27 16:11:42;;;;;;;2.02;1.82;;;;;;;23.66;36.09;99583.25;1782400;79;25535;-62
2023/07/27 16:14:09;;;;;;;3.52;2.50;;;;;;;23.56;36.02;99581.42;1782448;80;25400;-61
2023/07/27 16:16:35;;;;;;;7.62;7.12;;;;;;;23.47;36.36;99582.70;1782438;80;27526;-73
2023/07/27 16:19:01;;;;;;;12.80;10.53;;;;;;;23.41;36.58;99576.68;1782453;80;25522;-74
2023/07/27 16:21:29;;;;;;;12.47;11.35;;;;;;;23.28;36.31;99577.84;1782555;80;25623;-73
2023/07/27 16:23:55;;;;;;;12.15;11.45;;;;;;;23.15;36.80;99576.20;1782467;79;25401;-66
2023/07/27 16:26:21;;;;;;;16.73;15.80;;;;;;;23.07;37.04;99576.09;1782463;80;25450;-65
2023/07/27 16:28:47;;;;;;;18.65;17.60;;;;;;;23.04;37.60;99586.56;1782421;80;27569;-68
2023/07/27 16:31:13;;;;;;;30.80;29.15;;;;;;;22.99;37.78;99580.13;1782333;80;25391;-70
2023/07/27 16:33:40;;;;;;;77.60;73.40;;;;;;;22.91;37.66;99591.20;1782474;80;25457;-72
2023/07/27 16:36:15;;;;;;;77.40;73.25;;;;;;;22.85;37.87;99589.30;1781620;79;26509;-70
2023/07/27 16:38:44;;;;;;;76.05;71.95;;;;;;;22.80;38.03;99591.13;1759933;80;25477;-70
2023/07/27 16:41:11;;;;;;;77.80;73.60;;;;;;;22.71;38.18;99588.86;1782534;80;27507;-70
2023/07/27 16:43:39;;;;;;;75.15;71.00;;;;;;;22.59;38.07;99589.37;1760484;80;25842;-70
2023/07/27 16:46:05;;;;;;;75.30;71.17;;;;;;;22.47;38.04;99589.28;1782784;80;25409;-70
2023/07/27 16:48:32;;;;;;;77.05;72.92;;;;;;;22.35;38.32;99594.09;1782525;80;25410;-70
2023/07/27 16:50:58;;;;;;;76.47;72.37;;;;;;;22.26;38.58;99584.11;1782573;80;25540;-70
2023/07/27 16:53:24;;;;;;;77.90;73.72;;;;;;;22.17;38.68;99583.80;1782490;80;27458;-70
2023/07/27 16:55:50;;;;;;;77.80;73.50;;;;;;;22.08;38.83;99589.73;1786410;79;25526;-69
2023/07/27 16:58:18;;;;;;;78.45;74.15;;;;;;;21.95;38.69;99586.69;1778382;80;25795;-69